Time;durP1;ratioP1;P1;durP2;ratioP2;P2;SDS_P1;SDS_P2;PMS_P1;PMS_P2;Temp;Humidity;BMP_temperature;BMP_pressure;BME280_temperature;BME280_humidity;BME280_pressure;Samples;Min_cycle;Max_cycle;Signal;HPM_P1;HPM_P2
2021/09/01 00:01:42;;;;;;;19.15;5.17;;;;;;;11.82;100.00;99624.38;1636399;85;21102;-77
2021/09/01 00:04:08;;;;;;;19.12;5.58;;;;;;;11.80;100.00;99619.64;1646848;86;21085;-75
2021/09/01 00:06:34;;;;;;;12.63;5.75;;;;;;;11.78;100.00;99621.50;1647269;85;21042;-76
2021/09/01 00:09:01;;;;;;;16.75;5.20;;;;;;;11.74;100.00;99628.25;1647011;85;21590;-75
2021/09/01 00:11:27;;;;;;;11.85;5.37;;;;;;;11.71;100.00;99628.86;1601118;85;21506;-77
2021/09/01 00:13:55;;;;;;;13.25;5.85;;;;;;;11.69;100.00;99624.16;1646794;86;21068;-76
2021/09/01 00:16:28;;;;;;;13.18;4.97;;;;;;;11.71;100.00;99624.90;1646852;85;21068;-76
2021/09/01 00:18:59;;;;;;;21.95;5.10;;;;;;;11.69;100.00;99625.47;1649480;85;21029;-78
2021/09/01 00:21:25;;;;;;;9.78;5.08;;;;;;;11.70;100.00;99625.84;1649525;86;21083;-76
2021/09/01 00:23:52;;;;;;;12.70;5.17;;;;;;;11.68;100.00;99625.91;1648001;87;21540;-76
2021/09/01 00:26:19;;;;;;;20.23;6.28;;;;;;;11.67;100.00;99620.27;1646845;85;21111;-76
2021/09/01 00:28:45;;;;;;;10.28;4.45;;;;;;;11.66;100.00;99621.64;1621009;86;21661;-76
2021/09/01 00:31:12;;;;;;;12.50;5.85;;;;;;;11.67;100.00;99620.73;1620153;88;21087;-76
2021/09/01 00:33:39;;;;;;;10.60;5.72;;;;;;;11.68;100.00;99627.70;1620104;88;21064;-77
2021/09/01 00:36:06;;;;;;;10.68;5.70;;;;;;;11.66;100.00;99625.60;1620164;88;21141;-77
2021/09/01 00:38:34;;;;;;;20.60;5.72;;;;;;;11.63;100.00;99623.12;1620097;86;21173;-77
2021/09/01 00:41:02;;;;;;;18.27;5.72;;;;;;;11.60;100.00;99625.45;1596501;88;21032;-75
2021/09/01 00:43:29;;;;;;;10.90;5.58;;;;;;;11.55;100.00;99620.41;1620187;88;21586;-76
2021/09/01 00:45:58;;;;;;;9.70;5.80;;;;;;;11.50;100.00;99619.78;1620047;86;21107;-76
2021/09/01 00:48:29;;;;;;;12.07;5.70;;;;;;;11.44;100.00;99625.34;1620078;87;22031;-76
2021/09/01 00:52:40;;;;;;;15.50;6.45;;;;;;;11.44;100.00;99627.98;1811173;78;28179;-78
2021/09/01 00:55:08;;;;;;;13.45;6.62;;;;;;;11.33;100.00;99622.38;1761765;80;21019;-77
2021/09/01 00:57:36;;;;;;;14.33;6.95;;;;;;;11.33;100.00;99625.01;1791230;80;21120;-74
2021/09/01 01:00:05;;;;;;;12.05;6.42;;;;;;;11.30;100.00;99619.89;1762622;80;22049;-77
2021/09/01 01:02:36;;;;;;;12.45;6.12;;;;;;;11.27;100.00;99617.38;1791003;80;21036;-75
2021/09/01 01:05:06;;;;;;;13.05;5.80;;;;;;;11.23;100.00;99611.42;1790866;80;21300;-78
2021/09/01 01:07:33;;;;;;;15.68;6.28;;;;;;;11.23;100.00;99606.63;1790724;80;20933;-76
2021/09/01 01:10:02;;;;;;;13.80;6.95;;;;;;;11.21;100.00;99604.52;1790986;80;22006;-77
2021/09/01 01:12:30;;;;;;;8.48;6.50;;;;;;;11.18;100.00;99600.25;1790952;80;21295;-75
2021/09/01 01:14:58;;;;;;;11.68;6.65;;;;;;;11.18;100.00;99598.94;1791185;80;21512;-75
2021/09/01 01:17:24;;;;;;;12.70;6.35;;;;;;;11.17;100.00;99599.84;1790912;80;21499;-76
2021/09/01 01:19:52;;;;;;;15.23;6.75;;;;;;;11.16;100.00;99595.95;1790646;80;21024;-75
2021/09/01 01:22:22;;;;;;;20.97;7.25;;;;;;;11.14;100.00;99590.78;1790952;80;21095;-75
2021/09/01 01:25:03;;;;;;;9.95;5.72;;;;;;;11.13;100.00;99584.66;1790342;80;21079;-76
2021/09/01 01:27:42;;;;;;;9.75;5.47;;;;;;;11.13;100.00;99583.34;1790794;80;21009;-76
2021/09/01 01:30:16;;;;;;;14.55;6.75;;;;;;;11.14;100.00;99593.42;1790621;80;21060;-75
2021/09/01 01:32:45;;;;;;;7.17;4.80;;;;;;;11.17;100.00;99592.41;1791140;80;21037;-76
2021/09/01 01:35:28;;;;;;;15.25;6.65;;;;;;;11.18;100.00;99590.16;1790954;80;21123;-75
2021/09/01 01:37:55;;;;;;;23.15;7.75;;;;;;;11.17;100.00;99591.09;1766438;80;21013;-74
2021/09/01 01:40:22;;;;;;;10.82;6.65;;;;;;;11.12;100.00;99590.84;1791287;80;21028;-75
2021/09/01 01:42:51;;;;;;;20.35;8.18;;;;;;;11.11;100.00;99591.78;1790912;80;21677;-77
2021/09/01 01:45:17;;;;;;;17.45;7.95;;;;;;;11.07;100.00;99584.09;1790661;80;21578;-76
2021/09/01 01:47:44;;;;;;;15.23;6.62;;;;;;;11.03;100.00;99571.52;1790628;80;21470;-77
2021/09/01 01:50:11;;;;;;;10.60;6.90;;;;;;;11.02;100.00;99576.85;1790409;80;21028;-76
2021/09/01 01:52:37;;;;;;;12.75;6.53;;;;;;;11.01;100.00;99576.48;1785972;80;21083;-77
2021/09/01 01:55:05;;;;;;;15.30;7.58;;;;;;;10.99;100.00;99571.73;1785052;80;21096;-75
2021/09/01 01:57:31;;;;;;;15.90;7.80;;;;;;;10.98;100.00;99568.26;1785229;80;21067;-75
2021/09/01 01:59:58;;;;;;;13.20;6.40;;;;;;;10.98;100.00;99565.63;1785134;80;21162;-75
2021/09/01 02:02:31;;;;;;;12.63;7.70;;;;;;;11.02;100.00;99560.60;1785295;80;21499;-77
2021/09/01 02:04:57;;;;;;;12.10;7.10;;;;;;;11.05;100.00;99563.08;1784969;80;21322;-76
2021/09/01 02:07:25;;;;;;;9.73;6.85;;;;;;;11.02;100.00;99562.36;1785038;80;20997;-76
2021/09/01 02:09:52;;;;;;;15.90;10.15;;;;;;;11.03;100.00;99558.34;1784763;80;21040;-76
2021/09/01 02:12:28;;;;;;;15.75;8.65;;;;;;;11.02;100.00;99557.97;1784759;80;21467;-75
2021/09/01 02:14:53;;;;;;;23.10;10.28;;;;;;;11.00;100.00;99548.44;1783758;80;21020;-75
2021/09/01 02:17:23;;;;;;;13.80;9.40;;;;;;;10.97;100.00;99548.09;1784681;80;21101;-75
2021/09/01 02:19:49;;;;;;;16.35;10.13;;;;;;;10.99;100.00;99554.14;1784921;80;21025;-75
2021/09/01 02:22:17;;;;;;;20.72;11.78;;;;;;;10.97;100.00;99565.22;1784908;80;22107;-75
2021/09/01 02:24:44;;;;;;;19.48;12.03;;;;;;;10.99;100.00;99561.20;1784978;80;21037;-75
2021/09/01 02:27:13;;;;;;;27.60;10.18;;;;;;;10.96;100.00;99554.30;1784919;80;21088;-77
2021/09/01 02:29:39;;;;;;;21.30;10.20;;;;;;;10.92;100.00;99556.69;1785059;80;21053;-76
2021/09/01 02:32:09;;;;;;;12.80;9.00;;;;;;;10.93;100.00;99558.41;1784924;80;21029;-76
2021/09/01 02:34:38;;;;;;;17.52;11.03;;;;;;;10.94;100.00;99550.87;1785904;80;21009;-75
2021/09/01 02:37:04;;;;;;;20.12;12.07;;;;;;;10.90;100.00;99548.88;1788237;78;20994;-76
2021/09/01 02:39:31;;;;;;;22.70;11.97;;;;;;;10.88;100.00;99544.14;1789014;78;21100;-75
2021/09/01 02:41:58;;;;;;;26.45;12.95;;;;;;;10.88;100.00;99546.77;1790368;77;20843;-72
2021/09/01 02:44:24;;;;;;;16.90;11.38;;;;;;;10.87;100.00;99541.09;1789832;78;20978;-77
2021/09/01 02:46:51;;;;;;;17.67;11.60;;;;;;;10.87;100.00;99542.88;1789515;77;20981;-76
2021/09/01 02:49:18;;;;;;;26.00;10.48;;;;;;;10.87;100.00;99538.94;1785394;80;21480;-75
2021/09/01 02:51:44;;;;;;;22.10;10.85;;;;;;;10.87;100.00;99540.25;1782505;80;21553;-75
2021/09/01 02:54:11;;;;;;;19.52;11.55;;;;;;;10.89;100.00;99537.08;1741926;82;21029;-76
2021/09/01 02:56:38;;;;;;;10.32;7.08;;;;;;;10.90;100.00;99541.41;1715670;83;21530;-75
2021/09/01 02:59:05;;;;;;;28.23;13.08;;;;;;;10.89;100.00;99538.40;1779149;80;21005;-77
2021/09/01 03:01:31;;;;;;;22.70;10.72;;;;;;;10.92;100.00;99538.24;1748596;80;21131;-76
2021/09/01 03:03:58;;;;;;;18.90;8.45;;;;;;;10.92;100.00;99532.97;1778943;80;21018;-76
2021/09/01 03:06:24;;;;;;;22.00;10.03;;;;;;;10.92;100.00;99527.70;1778796;80;21722;-75
2021/09/01 03:08:51;;;;;;;12.10;6.45;;;;;;;10.90;100.00;99522.53;1779145;80;21020;-76
2021/09/01 03:11:17;;;;;;;13.65;9.58;;;;;;;10.90;100.00;99526.92;1779042;80;21033;-77
2021/09/01 03:13:45;;;;;;;21.65;9.40;;;;;;;10.91;100.00;99528.17;1778698;80;21269;-75
2021/09/01 03:16:13;;;;;;;15.72;7.97;;;;;;;10.91;100.00;99518.11;1778705;80;21026;-75
2021/09/01 03:18:40;;;;;;;12.68;8.88;;;;;;;10.92;100.00;99518.48;1779271;80;21560;-75
2021/09/01 03:21:09;;;;;;;15.43;8.05;;;;;;;10.94;100.00;99520.58;1778711;80;20974;-75
2021/09/01 03:23:35;;;;;;;18.15;9.13;;;;;;;10.94;100.00;99523.22;1779084;80;20981;-75
2021/09/01 03:26:04;;;;;;;17.25;8.90;;;;;;;10.95;100.00;99524.95;1778690;80;21133;-77
2021/09/01 03:28:31;;;;;;;11.85;8.35;;;;;;;10.96;100.00;99525.32;1779033;80;20994;-77
2021/09/01 03:30:58;;;;;;;18.10;9.78;;;;;;;10.94;100.00;99528.48;1778645;80;21080;-75
2021/09/01 03:33:24;;;;;;;18.30;8.85;;;;;;;10.96;100.00;99528.42;1778971;80;21033;-76
2021/09/01 03:35:50;;;;;;;13.28;8.40;;;;;;;10.97;100.00;99532.28;1779098;80;21014;-76
2021/09/01 03:38:17;;;;;;;21.15;10.45;;;;;;;10.99;100.00;99537.02;1779081;80;21786;-77
2021/09/01 03:40:43;;;;;;;23.67;11.03;;;;;;;11.02;100.00;99539.53;1778784;80;21064;-77
2021/09/01 03:43:10;;;;;;;24.40;12.07;;;;;;;11.06;100.00;99530.52;1779184;80;21140;-77
2021/09/01 03:45:38;;;;;;;18.00;11.18;;;;;;;11.09;100.00;99533.03;1779041;80;21551;-76
2021/09/01 03:48:06;;;;;;;34.27;14.65;;;;;;;11.15;100.00;99534.50;1779172;80;21001;-76
2021/09/01 03:50:32;;;;;;;28.65;14.10;;;;;;;11.23;100.00;99534.14;1778703;80;21072;-76
2021/09/01 03:53:01;;;;;;;23.10;10.78;;;;;;;11.46;100.00;99533.84;1782857;80;21052;-77
2021/09/01 03:55:29;;;;;;;25.52;12.55;;;;;;;11.88;100.00;99528.66;1766129;80;20957;-77
2021/09/01 03:57:57;;;;;;;28.95;13.05;;;;;;;12.38;100.00;99529.09;1753703;81;21143;-76
2021/09/01 04:00:23;;;;;;;20.60;10.43;;;;;;;12.95;100.00;99531.69;1753726;81;21088;-76
2021/09/01 04:02:52;;;;;;;24.30;10.40;;;;;;;13.43;100.00;99528.53;1753824;81;21480;-76
2021/09/01 04:05:19;;;;;;;23.30;10.50;;;;;;;13.91;100.00;99531.02;1753631;81;21075;-77
2021/09/01 04:07:46;;;;;;;28.32;10.75;;;;;;;14.35;100.00;99527.44;1753712;81;21013;-75
2021/09/01 04:10:12;;;;;;;21.68;11.20;;;;;;;14.78;100.00;99532.23;1753960;81;22025;-76
2021/09/01 04:12:39;;;;;;;27.85;12.05;;;;;;;15.02;100.00;99528.50;1753681;81;21053;-75
2021/09/01 04:15:08;;;;;;;23.22;10.35;;;;;;;15.15;100.00;99523.23;1753503;81;21137;-77
2021/09/01 04:17:35;;;;;;;21.20;9.98;;;;;;;15.24;98.87;99527.08;1753337;81;20981;-76
2021/09/01 04:20:02;;;;;;;18.37;10.30;;;;;;;15.37;98.09;99523.13;1753420;81;21099;-76
2021/09/01 04:22:29;;;;;;;21.55;11.68;;;;;;;15.51;96.29;99522.59;1753373;81;21026;-74
2021/09/01 04:24:55;;;;;;;16.77;10.05;;;;;;;15.59;95.32;99524.72;1753198;81;21670;-77
2021/09/01 04:27:22;;;;;;;22.37;10.78;;;;;;;15.63;95.16;99523.56;1752985;81;21840;-76
2021/09/01 04:29:48;;;;;;;20.77;10.65;;;;;;;15.66;94.38;99523.83;1753159;81;21020;-78
2021/09/01 04:32:15;;;;;;;20.15;9.83;;;;;;;15.68;94.52;99524.09;1726070;81;21025;-76
2021/09/01 04:34:41;;;;;;;30.72;11.20;;;;;;;15.71;94.30;99523.95;1753924;81;21041;-76
2021/09/01 04:37:07;;;;;;;22.02;9.20;;;;;;;15.71;93.12;99525.27;1753666;81;21558;-77
2021/09/01 04:39:34;;;;;;;19.85;9.60;;;;;;;15.73;93.23;99520.71;1753401;81;21490;-76
2021/09/01 04:42:00;;;;;;;19.62;10.48;;;;;;;15.81;92.25;99515.35;1753587;81;21017;-77
2021/09/01 04:44:28;;;;;;;26.15;8.88;;;;;;;15.88;92.33;99509.50;1753394;81;21028;-78
2021/09/01 04:46:54;;;;;;;20.68;10.60;;;;;;;15.99;92.24;99511.43;1753581;81;21056;-79
2021/09/01 04:49:21;;;;;;;15.48;9.03;;;;;;;16.19;91.13;99509.17;1753674;81;21052;-77
2021/09/01 04:51:48;;;;;;;16.97;8.90;;;;;;;16.42;91.03;99505.73;1753504;81;21991;-78
2021/09/01 04:54:15;;;;;;;14.15;8.60;;;;;;;16.61;88.93;99503.09;1757401;80;21013;-78
2021/09/01 04:56:43;;;;;;;17.00;7.30;;;;;;;16.81;87.18;99499.88;1788808;80;20919;-78
2021/09/01 04:59:09;;;;;;;16.05;7.62;;;;;;;17.14;86.95;99499.70;1786139;80;21154;-76
2021/09/01 05:01:36;;;;;;;23.65;7.97;;;;;;;17.55;84.45;99491.27;1785576;80;21688;-77
2021/09/01 05:04:02;;;;;;;20.82;7.80;;;;;;;18.01;83.67;99490.41;1784853;80;21569;-78
2021/09/01 05:06:29;;;;;;;17.30;8.30;;;;;;;18.41;81.12;99489.08;1784777;80;21531;-78
2021/09/01 05:08:55;;;;;;;17.75;7.65;;;;;;;18.65;78.71;99485.75;1785119;80;21588;-80
2021/09/01 05:11:23;;;;;;;12.00;7.15;;;;;;;18.85;77.70;99486.00;1784615;80;21036;-78
2021/09/01 05:13:50;;;;;;;12.45;7.70;;;;;;;19.07;77.18;99483.27;1784467;80;21064;-78
2021/09/01 05:16:17;;;;;;;13.22;7.78;;;;;;;19.19;74.89;99489.91;1784580;80;21143;-77
2021/09/01 05:18:43;;;;;;;18.80;9.15;;;;;;;19.13;75.79;99486.41;1784469;80;21009;-77
2021/09/01 05:21:13;;;;;;;14.83;7.83;;;;;;;19.08;75.39;99488.95;1784410;80;21009;-78
2021/09/01 05:23:41;;;;;;;17.60;7.47;;;;;;;19.12;76.07;99488.69;1784495;80;21012;-77
2021/09/01 05:26:07;;;;;;;20.30;9.25;;;;;;;19.18;75.52;99484.19;1784479;80;21582;-77
2021/09/01 05:28:37;;;;;;;13.28;8.13;;;;;;;19.29;75.03;99488.16;1784435;80;21121;-77
2021/09/01 05:31:06;;;;;;;13.65;7.70;;;;;;;19.33;74.67;99489.59;1784467;80;22043;-77
2021/09/01 05:33:37;;;;;;;13.83;7.28;;;;;;;19.27;72.55;99492.77;1784484;80;21024;-79
2021/09/01 05:36:05;;;;;;;22.52;7.80;;;;;;;19.21;73.19;99494.14;1784971;80;21047;-78
2021/09/01 05:38:33;;;;;;;11.85;8.08;;;;;;;19.12;73.75;99485.56;1785469;80;21542;-76
2021/09/01 05:41:01;;;;;;;17.00;7.50;;;;;;;19.02;73.48;99482.78;1785125;80;21109;-77
2021/09/01 05:43:27;;;;;;;20.10;8.03;;;;;;;18.94;74.79;99477.25;1785577;80;21621;-79
2021/09/01 05:45:54;;;;;;;14.90;8.10;;;;;;;18.95;74.78;99477.59;1785506;80;21044;-78
2021/09/01 05:48:22;;;;;;;20.27;7.15;;;;;;;19.02;74.25;99476.11;1784973;80;21028;-77
2021/09/01 05:50:55;;;;;;;11.75;6.40;;;;;;;19.05;74.25;99477.22;1756120;80;21650;-77
2021/09/01 05:53:22;;;;;;;25.35;7.58;;;;;;;19.06;72.32;99478.05;1784483;80;21094;-76
2021/09/01 05:55:51;;;;;;;14.03;6.40;;;;;;;19.02;73.42;99481.94;1762354;80;22207;-76
2021/09/01 05:58:19;;;;;;;14.87;7.20;;;;;;;19.25;73.72;99479.54;1717990;83;21185;-77
2021/09/01 06:00:55;;;;;;;10.80;6.30;;;;;;;19.59;72.14;99482.55;1692611;84;21115;-79
2021/09/01 06:03:30;;;;;;;15.63;7.20;;;;;;;19.77;72.37;99478.34;1692458;84;21087;-77
2021/09/01 06:06:01;;;;;;;19.73;7.40;;;;;;;19.84;70.91;99471.48;1692084;84;21123;-78
2021/09/01 06:08:34;;;;;;;13.68;6.45;;;;;;;19.97;70.77;99477.97;1692330;84;22156;-77
2021/09/01 06:11:04;;;;;;;13.43;6.15;;;;;;;20.17;70.34;99479.38;1692340;84;21078;-77
2021/09/01 06:13:32;;;;;;;17.23;7.05;;;;;;;20.22;69.67;99479.35;1688971;85;21062;-76
2021/09/01 06:16:00;;;;;;;18.02;6.15;;;;;;;20.17;68.61;99484.23;1692471;84;21060;-77
2021/09/01 06:18:28;;;;;;;14.55;6.55;;;;;;;19.94;69.25;99477.38;1689201;85;21070;-79
2021/09/01 06:20:55;;;;;;;10.15;6.00;;;;;;;19.77;69.17;99489.52;1692936;84;21048;-77
2021/09/01 06:23:22;;;;;;;8.48;4.90;;;;;;;19.65;70.40;99486.04;1700688;84;21051;-78
2021/09/01 06:25:48;;;;;;;13.68;5.83;;;;;;;19.55;69.66;99487.78;1700595;83;21111;-77
2021/09/01 06:28:17;;;;;;;14.40;5.95;;;;;;;19.52;70.17;99493.39;1700125;83;21569;-78
2021/09/01 06:30:43;;;;;;;14.23;5.97;;;;;;;19.41;70.17;99491.61;1700111;84;21521;-77
2021/09/01 06:33:10;;;;;;;13.18;5.80;;;;;;;19.34;70.01;99489.94;1699985;84;21510;-77
2021/09/01 06:35:38;;;;;;;11.22;5.75;;;;;;;19.28;70.50;99482.47;1700048;84;21487;-78
2021/09/01 06:38:07;;;;;;;12.75;5.72;;;;;;;19.24;70.27;99490.37;1682066;84;21066;-77
2021/09/01 06:40:34;;;;;;;19.23;6.45;;;;;;;19.26;70.20;99487.08;1700018;84;21031;-77
2021/09/01 06:43:02;;;;;;;12.88;6.15;;;;;;;19.37;70.76;99487.50;1700295;83;21179;-78
2021/09/01 06:45:29;;;;;;;12.75;5.80;;;;;;;19.57;68.79;99489.84;1700287;84;21625;-77
2021/09/01 06:47:56;;;;;;;9.90;5.50;;;;;;;20.10;67.89;99488.42;1700212;84;21103;-79
2021/09/01 06:50:25;;;;;;;11.20;5.30;;;;;;;20.90;66.14;99485.41;1700410;82;21111;-77
2021/09/01 06:52:52;;;;;;;10.63;5.10;;;;;;;21.89;62.80;99481.23;1698938;83;22171;-77
2021/09/01 06:55:24;;;;;;;11.70;5.00;;;;;;;22.85;59.63;99478.29;1727897;82;21037;-77
2021/09/01 06:57:51;;;;;;;9.28;4.50;;;;;;;23.40;56.36;99468.27;1742059;82;21104;-77
2021/09/01 07:00:19;;;;;;;16.12;5.22;;;;;;;23.83;54.10;99473.33;1715450;83;21116;-77
2021/09/01 07:02:46;;;;;;;11.55;5.42;;;;;;;24.01;54.48;99475.94;1778799;80;21239;-77
2021/09/01 07:05:14;;;;;;;7.53;4.37;;;;;;;24.01;53.62;99478.62;1778949;80;21020;-78
2021/09/01 07:07:43;;;;;;;7.37;4.30;;;;;;;23.87;52.87;99480.56;1779243;80;22015;-77
2021/09/01 07:10:11;;;;;;;13.38;4.20;;;;;;;23.59;53.36;99476.64;1779223;80;21012;-77
2021/09/01 07:12:39;;;;;;;8.88;4.70;;;;;;;23.39;53.73;99476.47;1780471;80;21068;-77
2021/09/01 07:15:08;;;;;;;10.13;5.08;;;;;;;23.21;55.20;99483.19;1781588;80;21438;-77
2021/09/01 07:17:37;;;;;;;7.35;3.95;;;;;;;23.02;54.86;99478.82;1781177;80;20999;-75
2021/09/01 07:20:06;;;;;;;10.82;5.03;;;;;;;22.81;54.50;99474.55;1780365;80;21088;-77
2021/09/01 07:22:34;;;;;;;10.80;4.65;;;;;;;22.64;56.24;99479.41;1779232;80;21084;-78
2021/09/01 07:25:04;;;;;;;10.30;4.12;;;;;;;22.53;56.00;99486.31;1778961;80;21488;-76
2021/09/01 07:27:31;;;;;;;6.17;4.55;;;;;;;22.38;56.22;99480.11;1779443;80;21029;-78
2021/09/01 07:30:01;;;;;;;10.88;4.53;;;;;;;22.08;55.84;99481.66;1779234;80;20953;-78
2021/09/01 07:32:31;;;;;;;6.10;4.03;;;;;;;21.84;56.07;99480.33;1780764;80;21271;-66
2021/09/01 07:34:59;;;;;;;9.48;3.65;;;;;;;21.60;56.22;99486.13;1780166;80;21496;-78
2021/09/01 07:37:31;;;;;;;6.62;3.83;;;;;;;21.45;57.01;99492.44;1781131;80;21004;-77
2021/09/01 07:39:58;;;;;;;7.40;4.10;;;;;;;21.33;57.73;99482.84;1783718;80;21045;-77
2021/09/01 07:42:24;;;;;;;9.43;3.80;;;;;;;21.13;58.79;99489.52;1783804;78;20946;-77
2021/09/01 07:44:51;;;;;;;9.78;4.90;;;;;;;21.00;59.37;99490.27;1782434;78;21532;-77
2021/09/01 07:47:17;;;;;;;7.17;4.30;;;;;;;20.83;60.28;99494.48;1780951;80;21029;-79
2021/09/01 07:49:44;;;;;;;8.50;4.30;;;;;;;20.68;60.45;99499.39;1779017;80;21052;-77
2021/09/01 07:52:12;;;;;;;8.65;4.20;;;;;;;20.62;61.18;99496.41;1779309;80;21020;-77
2021/09/01 07:54:39;;;;;;;8.40;3.87;;;;;;;20.43;62.09;99497.13;1771408;80;21056;-79
2021/09/01 07:57:06;;;;;;;9.28;4.10;;;;;;;20.27;61.17;99501.18;1748577;82;21474;-77
2021/09/01 07:59:32;;;;;;;9.00;4.67;;;;;;;20.17;62.21;99498.94;1712198;83;21381;-78
2021/09/01 08:01:59;;;;;;;10.65;4.97;;;;;;;20.04;62.87;99502.34;1687206;85;21074;-76
2021/09/01 08:04:25;;;;;;;8.23;4.67;;;;;;;19.91;63.57;99495.36;1712329;83;21057;-76
2021/09/01 08:06:53;;;;;;;8.28;4.85;;;;;;;19.77;65.29;99501.05;1687065;85;21048;-76
2021/09/01 08:09:20;;;;;;;13.50;4.95;;;;;;;19.67;65.84;99502.78;1712426;83;21875;-77
2021/09/01 08:11:47;;;;;;;8.10;5.08;;;;;;;19.57;65.40;99507.20;1687060;83;21099;-78
2021/09/01 08:14:15;;;;;;;15.03;6.30;;;;;;;19.40;66.46;99512.13;1748758;82;21717;-78
2021/09/01 08:16:41;;;;;;;10.38;5.37;;;;;;;19.35;67.89;99502.34;1748428;82;21063;-76
2021/09/01 08:19:08;;;;;;;16.42;6.15;;;;;;;19.38;68.80;99499.89;1748422;82;21080;-78
2021/09/01 08:21:35;;;;;;;15.43;5.62;;;;;;;19.37;69.01;99496.38;1771604;80;21131;-78
2021/09/01 08:24:03;;;;;;;7.90;5.35;;;;;;;19.34;68.84;99500.63;1779198;80;21558;-79
2021/09/01 08:26:30;;;;;;;11.48;5.15;;;;;;;19.34;69.19;99496.62;1778831;80;21006;-77
2021/09/01 08:28:57;;;;;;;14.35;5.53;;;;;;;19.31;67.58;99499.55;1779340;80;21024;-78
2021/09/01 08:31:23;;;;;;;9.88;5.30;;;;;;;19.27;68.98;99501.62;1778870;80;21111;-79
2021/09/01 08:33:50;;;;;;;18.57;6.67;;;;;;;19.29;69.18;99496.16;1779000;80;21482;-77
2021/09/01 08:36:16;;;;;;;10.72;5.45;;;;;;;19.34;68.76;99496.62;1778923;80;21971;-76
2021/09/01 08:38:44;;;;;;;12.40;5.47;;;;;;;19.39;69.00;99502.41;1779187;80;21071;-77
2021/09/01 08:41:13;;;;;;;7.25;4.72;;;;;;;19.45;68.81;99499.23;1779442;80;21072;-78
2021/09/01 08:46:35;;;;;;;20.88;6.85;;;;;;;19.66;68.55;99505.08;1778819;80;20986;-77
2021/09/01 08:49:01;;;;;;;8.90;5.35;;;;;;;19.80;68.25;99502.61;1779670;80;20994;-78
2021/09/01 08:51:29;;;;;;;8.90;5.35;;;;;;;19.88;67.89;99500.14;1779550;80;21107;-77
2021/09/01 08:53:56;;;;;;;13.90;5.67;;;;;;;19.98;66.99;99501.52;1785393;80;21024;-79
2021/09/01 08:56:24;;;;;;;14.87;5.83;;;;;;;20.12;67.05;99501.17;1786860;80;20977;-78
2021/09/01 08:58:51;;;;;;;24.05;6.08;;;;;;;20.18;66.70;99496.63;1757134;80;21780;-78
2021/09/01 09:01:40;;;;;;;21.02;6.30;;;;;;;20.18;66.18;99499.80;1785163;80;21005;-77
2021/09/01 09:04:09;;;;;;;10.32;5.10;;;;;;;20.20;66.15;99500.02;1785487;80;21020;-77
2021/09/01 09:06:55;;;;;;;14.45;6.10;;;;;;;20.29;66.35;99498.34;1757611;80;21504;-77
2021/09/01 09:09:24;;;;;;;13.22;6.08;;;;;;;20.37;66.16;99499.03;1787671;78;20989;-77
2021/09/01 09:11:51;;;;;;;14.07;5.47;;;;;;;20.41;66.36;99493.78;1789518;80;21117;-77
2021/09/01 09:14:28;;;;;;;79.07;8.38;;;;;;;20.57;65.61;99494.14;1789506;78;21005;-77
2021/09/01 09:17:08;;;;;;;16.55;6.12;;;;;;;20.74;64.46;99502.83;1785777;80;21014;-75
2021/09/01 09:19:50;;;;;;;25.48;6.37;;;;;;;20.89;64.20;99501.09;1785132;80;21059;-76
2021/09/01 09:22:28;;;;;;;22.02;5.95;;;;;;;21.08;63.48;99497.63;1784933;80;21084;-77
2021/09/01 09:25:20;;;;;;;9.55;4.90;;;;;;;21.27;62.85;99498.95;1785168;80;21527;-78
2021/09/01 09:27:58;;;;;;;14.53;6.42;;;;;;;21.35;62.50;99496.94;1785176;80;21091;-75
2021/09/01 09:30:31;;;;;;;10.40;5.12;;;;;;;21.39;62.25;99492.96;1784564;80;20989;-77
2021/09/01 09:33:05;;;;;;;14.68;6.12;;;;;;;21.37;62.05;99497.61;1784786;80;21031;-77
2021/09/01 09:35:57;;;;;;;14.55;6.67;;;;;;;21.34;62.34;99488.03;1784734;80;21024;-77
2021/09/01 09:38:37;;;;;;;12.43;5.20;;;;;;;21.28;61.87;99493.97;1785182;80;21088;-78
2021/09/01 09:41:21;;;;;;;17.05;6.30;;;;;;;21.21;62.42;99494.66;1784815;80;21598;-80
2021/09/01 09:43:49;;;;;;;14.60;5.95;;;;;;;21.15;62.50;99486.20;1784818;80;21076;-78
2021/09/01 09:46:16;;;;;;;10.95;5.78;;;;;;;21.11;62.19;99487.46;1784502;80;21092;-79
2021/09/01 09:48:45;;;;;;;16.87;5.47;;;;;;;21.09;62.50;99492.11;1784684;80;21144;-78
2021/09/01 09:51:15;;;;;;;11.18;5.33;;;;;;;21.12;62.91;99494.53;1784509;80;21752;-79
2021/09/01 09:53:45;;;;;;;16.85;5.70;;;;;;;21.19;63.04;99493.95;1783793;80;21615;-79
2021/09/01 09:56:28;;;;;;;36.75;7.08;;;;;;;21.27;62.91;99493.60;1779077;80;21165;-77
2021/09/01 09:58:56;;;;;;;14.80;5.60;;;;;;;21.38;62.66;99489.95;1779277;80;21481;-78
2021/09/01 10:01:25;;;;;;;74.05;8.83;;;;;;;21.46;62.42;99483.40;1778825;80;21032;-77
2021/09/01 10:03:54;;;;;;;21.37;5.97;;;;;;;21.54;61.68;99476.84;1779382;80;21088;-78
2021/09/01 10:06:21;;;;;;;11.43;5.37;;;;;;;21.65;60.95;99477.66;1778932;80;20998;-77
2021/09/01 10:08:52;;;;;;;13.20;5.33;;;;;;;21.72;60.72;99478.31;1778954;80;21005;-78
2021/09/01 10:11:20;;;;;;;15.40;5.17;;;;;;;21.83;60.24;99469.23;1778814;80;21057;-77
2021/09/01 10:13:53;;;;;;;46.18;6.70;;;;;;;21.99;59.39;99469.50;1778775;80;21059;-78
2021/09/01 10:16:34;;;;;;;20.75;5.87;;;;;;;22.13;59.71;99465.97;1778850;80;21122;-79
2021/09/01 10:19:19;;;;;;;20.55;5.58;;;;;;;22.29;59.50;99467.58;1778828;80;21799;-77
2021/09/01 10:21:58;;;;;;;15.50;6.10;;;;;;;22.44;57.75;99464.41;1778661;80;21024;-78
2021/09/01 10:24:38;;;;;;;12.03;5.78;;;;;;;22.49;56.23;99466.13;1778638;80;21006;-79
2021/09/01 10:27:13;;;;;;;12.90;6.75;;;;;;;22.40;56.51;99463.34;1779065;80;21005;-76
2021/09/01 10:30:00;;;;;;;14.50;5.80;;;;;;;22.40;56.02;99462.00;1778885;80;21775;-77
2021/09/01 10:32:47;;;;;;;17.73;5.30;;;;;;;22.43;56.42;99465.38;1778852;80;21001;-78
2021/09/01 10:35:21;;;;;;;19.07;5.25;;;;;;;22.55;56.66;99459.67;1779584;80;21065;-78
2021/09/01 10:37:53;;;;;;;9.50;4.85;;;;;;;22.74;56.11;99455.19;1781376;80;21021;-78
2021/09/01 10:40:31;;;;;;;11.45;4.87;;;;;;;23.02;55.80;99457.34;1781654;80;21029;-78
2021/09/01 10:43:00;;;;;;;10.72;4.62;;;;;;;23.40;54.00;99451.31;1780628;80;21217;-78
2021/09/01 10:45:37;;;;;;;11.55;4.70;;;;;;;23.81;53.54;99455.16;1779454;80;21111;-79
2021/09/01 10:48:06;;;;;;;8.35;4.17;;;;;;;24.23;53.09;99444.96;1779348;80;21021;-79
2021/09/01 10:50:49;;;;;;;9.93;4.65;;;;;;;24.83;51.96;99445.86;1778773;80;21554;-81
2021/09/01 10:53:27;;;;;;;7.53;4.08;;;;;;;25.44;48.98;99437.00;1778943;80;21539;-78
2021/09/01 10:55:58;;;;;;;7.92;3.95;;;;;;;26.11;47.74;99432.20;1760287;80;21136;-76
2021/09/01 10:58:33;;;;;;;5.70;3.65;;;;;;;26.78;43.78;99430.89;1717862;83;21907;-78
2021/09/01 11:01:16;;;;;;;8.48;3.22;;;;;;;27.21;41.49;99420.45;1691971;84;21063;-79
2021/09/01 11:04:02;;;;;;;7.83;3.08;;;;;;;27.45;40.26;99429.37;1678179;84;21036;-78
2021/09/01 11:06:37;;;;;;;7.00;2.55;;;;;;;27.66;39.48;99428.69;1691424;84;21157;-78
2021/09/01 11:09:15;;;;;;;26.07;4.47;;;;;;;27.86;38.78;99424.45;1700643;84;21527;-79
2021/09/01 11:11:57;;;;;;;13.40;3.65;;;;;;;27.74;40.12;99421.83;1700129;84;21106;-77
2021/09/01 11:14:38;;;;;;;7.15;3.10;;;;;;;27.59;38.92;99424.53;1700264;83;21665;-77
2021/09/01 11:17:10;;;;;;;;;;;;;;;27.38;39.88;99423.36;1702677;83;21094;-77
2021/09/01 11:19:40;;;;;;;11.65;3.12;;;;;;;27.31;40.69;99426.47;1700179;83;20184;-78
2021/09/01 11:22:09;;;;;;;8.28;2.75;;;;;;;27.35;39.30;99421.52;1700589;84;21121;-78
2021/09/01 11:25:13;;;;;;;5.08;2.87;;;;;;;27.40;38.12;99429.92;1700728;83;21055;-76
2021/09/01 11:27:53;;;;;;;12.82;2.77;;;;;;;27.35;38.14;99427.77;1700262;84;21031;-79
2021/09/01 11:30:21;;;;;;;7.22;3.20;;;;;;;27.18;37.19;99428.91;1700318;84;21035;-78
2021/09/01 11:32:55;;;;;;;16.75;3.20;;;;;;;27.03;37.70;99428.00;1700301;84;21680;-79
2021/09/01 11:35:24;;;;;;;18.20;4.12;;;;;;;26.72;38.62;99427.03;1700115;83;21650;-78
2021/09/01 11:38:03;;;;;;;9.48;3.20;;;;;;;26.30;39.18;99425.53;1699991;83;21577;-79